createdAt,value
2018-09-17T00:00:50.064Z,988.458
2018-09-17T00:02:50.073Z,988.452
2018-09-17T00:04:50.305Z,988.436
2018-09-17T00:06:50.499Z,988.439
2018-09-17T00:08:50.572Z,988.414
2018-09-17T00:10:49.611Z,988.412
2018-09-17T00:12:49.655Z,988.419
2018-09-17T00:14:49.639Z,988.413
2018-09-17T00:16:49.897Z,988.390
2018-09-17T00:18:49.875Z,988.384
2018-09-17T00:20:50.007Z,988.366
2018-09-17T00:22:50.013Z,988.334
2018-09-17T00:24:50.082Z,988.313
2018-09-17T00:26:50.208Z,988.298
2018-09-17T00:28:50.149Z,988.299
2018-09-17T00:30:50.185Z,988.296
2018-09-17T00:32:50.154Z,988.307
2018-09-17T00:34:50.463Z,988.322
2018-09-17T00:36:49.858Z,988.322
2018-09-17T00:38:49.921Z,988.308
2018-09-17T00:40:50.129Z,988.278
2018-09-17T00:42:50.212Z,988.247
2018-09-17T00:44:50.216Z,988.247
2018-09-17T00:46:50.440Z,988.248
2018-09-17T00:48:50.396Z,988.239
2018-09-17T00:50:50.322Z,988.200
2018-09-17T00:52:50.313Z,988.170
2018-09-17T00:54:50.261Z,988.177
2018-09-17T00:56:50.584Z,988.156
2018-09-17T00:58:49.647Z,988.155
2018-09-17T01:00:49.746Z,988.165
2018-09-17T01:02:49.938Z,988.157
2018-09-17T01:04:50.387Z,988.164
2018-09-17T01:06:49.624Z,988.155
2018-09-17T01:08:49.635Z,988.154
2018-09-17T01:10:49.719Z,988.135
2018-09-17T01:12:49.750Z,988.121
2018-09-17T01:14:49.789Z,988.130
2018-09-17T01:16:50.004Z,988.134
2018-09-17T01:18:49.996Z,988.129
2018-09-17T01:20:50.033Z,988.132
2018-09-17T01:22:50.148Z,988.135
2018-09-17T01:24:50.095Z,988.120
2018-09-17T01:26:50.337Z,988.126
2018-09-17T01:28:50.386Z,988.118
2018-09-17T01:30:50.368Z,988.107
2018-09-17T01:32:50.518Z,988.122
2018-09-17T01:34:49.897Z,988.125
2018-09-17T01:36:49.976Z,988.122
2018-09-17T01:38:50.126Z,988.135
2018-09-17T01:40:50.126Z,988.151
2018-09-17T01:42:50.136Z,988.145
2018-09-17T01:44:50.118Z,988.143
2018-09-17T01:46:50.266Z,988.138
2018-09-17T01:48:50.247Z,988.124
2018-09-17T01:50:50.189Z,988.115
2018-09-17T01:52:50.391Z,988.102
2018-09-17T01:54:50.402Z,988.085
2018-09-17T01:56:50.619Z,988.083
2018-09-17T01:58:49.659Z,988.067
2018-09-17T02:00:49.630Z,988.067
2018-09-17T02:02:49.740Z,988.055
2018-09-17T02:04:50.283Z,988.063
2018-09-17T02:06:50.407Z,988.085
2018-09-17T02:08:50.588Z,988.097
2018-09-17T02:10:49.824Z,988.104
2018-09-17T02:12:49.879Z,988.139
2018-09-17T02:14:49.876Z,988.167
2018-09-17T02:16:49.937Z,988.188
2018-09-17T02:18:49.903Z,988.209
2018-09-17T02:20:50.115Z,988.228
2018-09-17T02:22:50.288Z,988.243
2018-09-17T02:24:50.224Z,988.247
2018-09-17T02:26:50.308Z,988.238
2018-09-17T02:28:50.368Z,988.205
2018-09-17T02:30:50.360Z,988.187
2018-09-17T02:32:50.420Z,988.193
2018-09-17T02:34:49.946Z,988.201
2018-09-17T02:36:50.149Z,988.201
2018-09-17T02:38:50.307Z,988.189
2018-09-17T02:40:50.358Z,988.131
2018-09-17T02:42:50.296Z,988.116
2018-09-17T02:44:50.283Z,988.125
2018-09-17T02:46:50.470Z,988.172
2018-09-17T02:48:50.405Z,988.174
2018-09-17T02:50:50.355Z,988.180
2018-09-17T02:52:50.375Z,988.178
2018-09-17T02:54:50.318Z,988.190
2018-09-17T02:56:50.571Z,988.219
2018-09-17T02:58:49.661Z,988.251
2018-09-17T03:00:49.690Z,988.258
2018-09-17T03:02:49.835Z,988.267
2018-09-17T03:04:50.074Z,988.267
2018-09-17T03:06:50.339Z,988.244
2018-09-17T03:08:50.390Z,988.223
2018-09-17T03:10:50.445Z,988.222
2018-09-17T03:12:50.424Z,988.186
2018-09-17T03:14:50.375Z,988.163
2018-09-17T03:16:50.587Z,988.146
2018-09-17T03:18:50.568Z,988.113
2018-09-17T03:20:50.039Z,988.096
2018-09-17T03:22:50.106Z,988.078
2018-09-17T03:24:50.114Z,988.064
2018-09-17T03:26:50.278Z,988.057
2018-09-17T03:28:50.255Z,988.075
2018-09-17T03:30:50.233Z,988.130
2018-09-17T03:32:50.230Z,988.151
2018-09-17T03:34:49.634Z,988.168
2018-09-17T03:36:49.956Z,988.167
2018-09-17T03:38:49.904Z,988.172
2018-09-17T03:40:49.903Z,988.210
2018-09-17T03:42:49.862Z,988.256
2018-09-17T03:44:49.821Z,988.274
2018-09-17T03:46:50.193Z,988.303
2018-09-17T03:48:50.235Z,988.304
2018-09-17T03:50:50.185Z,988.322
2018-09-17T03:52:50.161Z,988.337
2018-09-17T03:54:50.096Z,988.389
2018-09-17T03:56:50.564Z,988.419
2018-09-17T03:58:50.544Z,988.439
2018-09-17T04:00:50.525Z,988.451
2018-09-17T04:02:49.656Z,988.473
2018-09-17T04:04:49.895Z,988.480
2018-09-17T04:06:50.021Z,988.483
2018-09-17T04:08:50.048Z,988.480
2018-09-17T04:10:50.040Z,988.482
2018-09-17T04:12:50.018Z,988.491
2018-09-17T04:14:50.037Z,988.510
2018-09-17T04:16:50.208Z,988.500
2018-09-17T04:18:50.257Z,988.463
2018-09-17T04:20:50.232Z,988.463
2018-09-17T04:22:50.220Z,988.476
2018-09-17T04:24:50.129Z,988.491
2018-09-17T04:26:50.001Z,988.553
2018-09-17T04:28:49.993Z,988.603
2018-09-17T04:30:49.922Z,988.626
2018-09-17T04:32:49.847Z,988.658
2018-09-17T04:34:50.081Z,988.654
2018-09-17T04:36:50.210Z,988.643
2018-09-17T04:38:50.211Z,988.638
2018-09-17T04:40:50.186Z,988.650
2018-09-17T04:42:50.216Z,988.654
2018-09-17T04:44:50.193Z,988.649
2018-09-17T04:46:50.322Z,988.663
2018-09-17T04:48:50.245Z,988.672
2018-09-17T04:50:50.317Z,988.681
2018-09-17T04:52:50.407Z,988.693
2018-09-17T04:54:50.395Z,988.698
2018-09-17T04:56:50.557Z,988.707
2018-09-17T04:58:50.483Z,988.699
2018-09-17T05:00:49.638Z,988.691
2018-09-17T05:02:49.789Z,988.693
2018-09-17T05:04:50.113Z,988.679
2018-09-17T05:06:50.206Z,988.657
2018-09-17T05:08:50.140Z,988.646
2018-09-17T05:10:50.081Z,988.606
2018-09-17T05:12:50.276Z,988.615
2018-09-17T05:14:50.256Z,988.639
2018-09-17T05:16:50.382Z,988.641
2018-09-17T05:18:50.315Z,988.614
2018-09-17T05:20:50.405Z,988.592
2018-09-17T05:22:50.436Z,988.602
2018-09-17T05:24:50.412Z,988.603
2018-09-17T05:26:50.019Z,988.620
2018-09-17T05:28:50.119Z,988.643
2018-09-17T05:30:50.182Z,988.679
2018-09-17T05:32:50.176Z,988.706
2018-09-17T05:34:50.512Z,988.730
2018-09-17T05:36:50.454Z,988.758
2018-09-17T05:38:50.417Z,988.751
2018-09-17T05:40:50.446Z,988.761
2018-09-17T05:42:50.383Z,988.801
2018-09-17T05:44:50.367Z,988.806
2018-09-17T05:46:49.658Z,988.849
2018-09-17T05:48:49.649Z,988.875
2018-09-17T05:50:49.756Z,988.871
2018-09-17T05:52:49.711Z,988.861
2018-09-17T05:54:49.747Z,988.834
2018-09-17T05:56:49.881Z,988.785
2018-09-17T05:58:49.835Z,988.788
2018-09-17T06:00:49.871Z,988.803
2018-09-17T06:02:49.973Z,988.851
2018-09-17T06:04:50.310Z,988.876
2018-09-17T06:06:50.629Z,988.902
2018-09-17T06:08:49.730Z,988.927
2018-09-17T06:10:49.687Z,988.938
2018-09-17T06:12:49.736Z,988.933
2018-09-17T06:14:49.928Z,988.908
2018-09-17T06:16:50.065Z,988.894
2018-09-17T06:18:50.112Z,988.884
2018-09-17T06:20:50.225Z,988.856
2018-09-17T06:22:50.183Z,988.811
2018-09-17T06:24:50.133Z,988.801
2018-09-17T06:26:50.544Z,988.800
2018-09-17T06:28:50.009Z,988.805
2018-09-17T06:30:50.372Z,988.799
2018-09-17T06:32:50.309Z,988.794
2018-09-17T06:34:49.788Z,988.790
2018-09-17T06:36:50.026Z,988.800
2018-09-17T06:38:50.123Z,988.796
2018-09-17T06:40:50.204Z,988.814
2018-09-17T06:42:50.122Z,988.869
2018-09-17T06:44:50.214Z,988.921
2018-09-17T06:46:49.607Z,988.983
2018-09-17T06:48:50.589Z,989.007
2018-09-17T06:50:49.622Z,989.019
2018-09-17T06:52:49.791Z,989.022
2018-09-17T06:54:49.832Z,989.010
2018-09-17T06:56:49.890Z,988.993
2018-09-17T06:58:49.850Z,988.959
2018-09-17T07:00:50.077Z,988.925
2018-09-17T07:02:50.052Z,988.902
2018-09-17T07:04:50.424Z,988.895
2018-09-17T07:06:49.754Z,988.914
2018-09-17T07:08:49.798Z,988.934
2018-09-17T07:10:49.790Z,988.963
2018-09-17T07:12:49.882Z,988.983
2018-09-17T07:14:49.886Z,988.983
2018-09-17T07:16:50.115Z,988.972
2018-09-17T07:18:50.073Z,988.982
2018-09-17T07:20:50.107Z,988.960
2018-09-17T07:22:50.084Z,988.938
2018-09-17T07:24:50.093Z,988.913
2018-09-17T07:26:50.315Z,988.901
2018-09-17T07:28:50.349Z,988.875
2018-09-17T07:30:50.321Z,988.886
2018-09-17T07:32:50.360Z,988.892
2018-09-17T07:34:49.755Z,988.896
2018-09-17T07:36:49.927Z,988.895
2018-09-17T07:38:49.955Z,988.897
2018-09-17T07:40:50.000Z,988.883
2018-09-17T07:42:50.169Z,988.867
2018-09-17T07:44:50.133Z,988.851
2018-09-17T07:46:50.256Z,988.833
2018-09-17T07:48:50.183Z,988.830
2018-09-17T07:50:50.143Z,988.833
2018-09-17T07:52:50.230Z,988.838
2018-09-17T07:54:50.282Z,988.844
2018-09-17T07:56:50.323Z,988.877
2018-09-17T07:58:50.331Z,988.904
2018-09-17T08:00:50.352Z,988.904
2018-09-17T08:02:50.446Z,988.928
2018-09-17T08:04:49.690Z,988.932
2018-09-17T08:06:49.947Z,988.930
2018-09-17T08:08:49.924Z,988.926
2018-09-17T08:10:49.885Z,988.933
2018-09-17T08:12:49.850Z,988.948
2018-09-17T08:14:50.020Z,988.970
2018-09-17T08:16:50.288Z,988.991
2018-09-17T08:18:50.395Z,988.982
2018-09-17T08:20:50.381Z,988.982
2018-09-17T08:22:50.382Z,988.979
2018-09-17T08:24:50.351Z,988.960
2018-09-17T08:26:50.459Z,988.964
2018-09-17T08:28:50.422Z,988.926
2018-09-17T08:30:50.341Z,988.922
2018-09-17T08:32:50.251Z,988.904
2018-09-17T08:34:49.650Z,988.882
2018-09-17T08:36:49.823Z,988.851
2018-09-17T08:38:49.780Z,988.807
2018-09-17T08:40:49.835Z,988.807
2018-09-17T08:42:49.877Z,988.764
2018-09-17T08:44:49.926Z,988.770
2018-09-17T08:46:50.053Z,988.749
2018-09-17T08:48:49.960Z,988.746
2018-09-17T08:50:49.963Z,988.738
2018-09-17T08:52:50.325Z,988.740
2018-09-17T08:54:49.681Z,988.743
2018-09-17T08:56:49.801Z,988.725
2018-09-17T08:58:50.457Z,988.721
2018-09-17T09:00:50.419Z,988.726
2018-09-17T09:02:50.382Z,988.710
2018-09-17T09:04:49.888Z,988.701
2018-09-17T09:06:49.895Z,988.667
2018-09-17T09:08:49.866Z,988.648
2018-09-17T09:10:49.858Z,988.611
2018-09-17T09:12:49.766Z,988.608
2018-09-17T09:14:49.809Z,988.599
2018-09-17T09:16:49.994Z,988.593
2018-09-17T09:18:49.964Z,988.581
2018-09-17T09:20:49.951Z,988.560
2018-09-17T09:22:49.965Z,988.515
2018-09-17T09:24:49.935Z,988.490
2018-09-17T09:26:50.104Z,988.489
2018-09-17T09:28:50.173Z,988.471
2018-09-17T09:30:50.326Z,988.459
2018-09-17T09:32:49.624Z,988.412
2018-09-17T09:34:50.182Z,988.388
2018-09-17T09:36:50.322Z,988.371
2018-09-17T09:38:50.321Z,988.361
2018-09-17T09:40:50.306Z,988.345
2018-09-17T09:42:50.253Z,988.362
2018-09-17T09:44:50.238Z,988.380
2018-09-17T09:46:50.448Z,988.350
2018-09-17T09:48:50.377Z,988.335
2018-09-17T09:50:50.419Z,988.336
2018-09-17T09:52:50.650Z,988.258
2018-09-17T09:54:50.014Z,988.241
2018-09-17T09:56:49.733Z,988.190
2018-09-17T09:58:49.728Z,988.151
2018-09-17T10:00:49.780Z,988.128
2018-09-17T10:02:49.828Z,988.128
2018-09-17T10:04:50.116Z,988.132
2018-09-17T10:06:50.199Z,988.113
2018-09-17T10:08:50.149Z,988.095
2018-09-17T10:10:50.391Z,988.069
2018-09-17T10:12:50.336Z,988.062
2018-09-17T10:14:50.311Z,988.040
2018-09-17T10:16:50.570Z,988.014
2018-09-17T10:18:50.530Z,987.995
2018-09-17T10:20:49.633Z,987.973
2018-09-17T10:22:49.596Z,987.939
2018-09-17T10:24:49.766Z,987.900
2018-09-17T10:26:49.874Z,987.886
2018-09-17T10:28:49.829Z,987.886
2018-09-17T10:30:49.922Z,987.814
2018-09-17T10:32:49.859Z,987.814
2018-09-17T10:34:50.188Z,987.831
2018-09-17T10:36:50.281Z,987.866
2018-09-17T10:38:50.214Z,987.859
2018-09-17T10:40:50.300Z,987.872
2018-09-17T10:42:50.215Z,987.883
2018-09-17T10:44:50.264Z,987.883
2018-09-17T10:46:50.503Z,987.867
2018-09-17T10:48:49.708Z,987.891
2018-09-17T10:50:49.742Z,987.900
2018-09-17T10:52:49.685Z,987.877
2018-09-17T10:54:49.750Z,987.866
2018-09-17T10:56:50.027Z,987.848
2018-09-17T10:58:50.007Z,987.847
2018-09-17T11:00:49.939Z,987.824
2018-09-17T11:02:49.904Z,987.796
2018-09-17T11:04:50.182Z,987.759
2018-09-17T11:06:50.372Z,987.759
2018-09-17T11:08:50.285Z,987.718
2018-09-17T11:10:50.271Z,987.675
2018-09-17T11:12:50.261Z,987.647
2018-09-17T11:14:50.212Z,987.655
2018-09-17T11:16:50.345Z,987.651
2018-09-17T11:18:50.306Z,987.612
2018-09-17T11:20:50.302Z,987.581
2018-09-17T11:22:50.265Z,987.560
2018-09-17T11:24:50.225Z,987.554
2018-09-17T11:26:50.301Z,987.556
2018-09-17T11:28:50.360Z,987.522
2018-09-17T11:30:50.314Z,987.467
2018-09-17T11:32:50.268Z,987.427
2018-09-17T11:34:50.677Z,987.415
2018-09-17T11:36:49.911Z,987.422
2018-09-17T11:38:49.844Z,987.428
2018-09-17T11:40:49.758Z,987.387
2018-09-17T11:42:49.846Z,987.349
2018-09-17T11:44:49.900Z,987.328
2018-09-17T11:46:50.029Z,987.298
2018-09-17T11:48:49.974Z,987.301
2018-09-17T11:50:49.987Z,987.297
2018-09-17T11:52:50.128Z,987.295
2018-09-17T11:54:50.054Z,987.319
2018-09-17T11:56:50.185Z,987.319
2018-09-17T11:58:50.189Z,987.290
2018-09-17T12:00:50.174Z,987.241
2018-09-17T12:02:50.240Z,987.195
2018-09-17T12:04:49.668Z,987.130
2018-09-17T12:06:50.250Z,987.110
2018-09-17T12:08:50.308Z,987.110
2018-09-17T12:10:50.327Z,987.030
2018-09-17T12:12:50.283Z,986.999
2018-09-17T12:14:50.284Z,987.005
2018-09-17T12:16:50.400Z,986.998
2018-09-17T12:18:50.342Z,986.968
2018-09-17T12:20:50.514Z,986.930
2018-09-17T12:22:50.536Z,986.928
2018-09-17T12:24:50.557Z,986.911
2018-09-17T12:26:49.808Z,986.890
2018-09-17T12:28:49.771Z,986.885
2018-09-17T12:30:49.812Z,986.864
2018-09-17T12:32:49.917Z,986.833
2018-09-17T12:34:50.506Z,986.811
2018-09-17T12:36:49.665Z,986.791
2018-09-17T12:38:49.719Z,986.744
2018-09-17T12:40:49.735Z,986.729
2018-09-17T12:42:49.874Z,986.709
2018-09-17T12:44:49.949Z,986.706
2018-09-17T12:46:50.190Z,986.660
2018-09-17T12:48:50.108Z,986.656
2018-09-17T12:50:50.122Z,986.621
2018-09-17T12:52:50.195Z,986.575
2018-09-17T12:54:50.281Z,986.530
2018-09-17T12:56:49.679Z,986.509
2018-09-17T12:58:49.817Z,986.469
2018-09-17T13:00:49.782Z,986.447
2018-09-17T13:02:49.784Z,986.442
2018-09-17T13:04:50.249Z,986.420
2018-09-17T13:06:50.500Z,986.379
2018-09-17T13:08:50.528Z,986.358
2018-09-17T13:10:50.476Z,986.358
2018-09-17T13:12:50.400Z,986.331
2018-09-17T13:14:50.671Z,986.299
2018-09-17T13:16:50.060Z,986.255
2018-09-17T13:18:50.162Z,986.211
2018-09-17T13:20:50.253Z,986.211
2018-09-17T13:22:50.225Z,986.202
2018-09-17T13:24:50.324Z,986.209
2018-09-17T13:26:49.726Z,986.188
2018-09-17T13:28:49.822Z,986.150
2018-09-17T13:30:49.896Z,986.139
2018-09-17T13:32:49.942Z,986.142
2018-09-17T13:34:50.277Z,986.149
2018-09-17T13:36:50.473Z,986.123
2018-09-17T13:38:49.671Z,986.093
2018-09-17T13:40:50.625Z,986.084
2018-09-17T13:42:49.741Z,986.072
2018-09-17T13:44:49.753Z,986.072
2018-09-17T13:46:50.106Z,986.026
2018-09-17T13:48:50.168Z,986.000
2018-09-17T13:50:50.200Z,985.986
2018-09-17T13:52:50.251Z,985.975
2018-09-17T13:54:50.275Z,985.941
2018-09-17T13:56:50.446Z,985.901
2018-09-17T13:58:50.549Z,985.871
2018-09-17T14:00:50.537Z,985.883
2018-09-17T14:02:49.816Z,985.880
2018-09-17T14:04:50.063Z,985.881
2018-09-17T14:06:50.233Z,985.881
2018-09-17T14:08:50.208Z,985.871
2018-09-17T14:10:50.262Z,985.872
2018-09-17T14:12:50.326Z,985.795
2018-09-17T14:14:50.519Z,985.755
2018-09-17T14:16:49.633Z,985.780
2018-09-17T14:18:49.718Z,985.756
2018-09-17T14:20:49.992Z,985.725
2018-09-17T14:22:50.097Z,985.712
2018-09-17T14:24:50.116Z,985.733
2018-09-17T14:26:50.316Z,985.764
2018-09-17T14:28:50.393Z,985.766
2018-09-17T14:30:50.396Z,985.758
2018-09-17T14:32:50.613Z,985.722
2018-09-17T14:34:50.360Z,985.672
2018-09-17T14:36:50.476Z,985.615
2018-09-17T14:38:50.471Z,985.582
2018-09-17T14:40:50.561Z,985.580
2018-09-17T14:42:49.627Z,985.519
2018-09-17T14:44:49.799Z,985.514
2018-09-17T14:46:50.005Z,985.512
2018-09-17T14:48:50.029Z,985.490
2018-09-17T14:50:50.125Z,985.488
2018-09-17T14:52:50.068Z,985.471
2018-09-17T14:54:50.030Z,985.468
2018-09-17T14:56:50.219Z,985.463
2018-09-17T14:58:50.124Z,985.408
2018-09-17T15:00:50.131Z,985.413
2018-09-17T15:02:50.141Z,985.396
2018-09-17T15:04:50.426Z,985.371
2018-09-17T15:06:49.714Z,985.364
2018-09-17T15:08:50.121Z,985.348
2018-09-17T15:10:49.797Z,985.316
2018-09-17T15:12:49.843Z,985.264
2018-09-17T15:14:49.988Z,985.237
2018-09-17T15:16:50.247Z,985.198
2018-09-17T15:18:50.374Z,985.182
2018-09-17T15:20:50.488Z,985.194
2018-09-17T15:22:50.433Z,985.208
2018-09-17T15:24:50.554Z,985.198
2018-09-17T15:26:49.898Z,985.185
2018-09-17T15:28:49.872Z,985.192
2018-09-17T15:30:50.003Z,985.189
2018-09-17T15:32:50.113Z,985.187
2018-09-17T15:34:50.577Z,985.149
2018-09-17T15:36:49.941Z,985.164
2018-09-17T15:38:49.872Z,985.163
2018-09-17T15:40:50.312Z,985.182
2018-09-17T15:42:49.809Z,985.168
2018-09-17T15:44:49.895Z,985.121
2018-09-17T15:46:50.417Z,985.103
2018-09-17T15:48:49.824Z,985.075
2018-09-17T15:50:49.851Z,985.060
2018-09-17T15:52:49.849Z,985.063
2018-09-17T15:54:49.884Z,985.038
2018-09-17T15:56:49.973Z,985.023
2018-09-17T15:58:50.030Z,985.042
2018-09-17T16:00:50.002Z,985.040
2018-09-17T16:02:50.132Z,985.034
2018-09-17T16:04:49.825Z,985.026
2018-09-17T16:06:50.033Z,985.002
2018-09-17T16:08:50.449Z,984.989
2018-09-17T16:10:49.794Z,984.976
2018-09-17T16:12:50.097Z,984.956
2018-09-17T16:14:50.123Z,984.958
2018-09-17T16:16:50.299Z,984.981
2018-09-17T16:18:50.243Z,984.975
2018-09-17T16:20:50.207Z,984.976
2018-09-17T16:22:50.176Z,984.965
2018-09-17T16:24:50.156Z,984.945
2018-09-17T16:26:50.346Z,984.929
2018-09-17T16:28:50.500Z,984.917
2018-09-17T16:30:50.468Z,984.931
2018-09-17T16:32:50.523Z,984.935
2018-09-17T16:34:49.783Z,984.936
2018-09-17T16:36:50.144Z,984.953
2018-09-17T16:38:50.161Z,984.956
2018-09-17T16:40:50.451Z,984.947
2018-09-17T16:42:49.935Z,984.924
2018-09-17T16:44:49.901Z,984.921
2018-09-17T16:46:50.027Z,984.920
2018-09-17T16:48:49.980Z,984.937
2018-09-17T16:50:50.128Z,984.960
2018-09-17T16:52:50.390Z,984.966
2018-09-17T16:54:49.631Z,984.960
2018-09-17T16:56:49.817Z,984.942
2018-09-17T16:58:50.088Z,984.945
2018-09-17T17:00:50.341Z,984.946
2018-09-17T17:02:50.290Z,984.934
2018-09-17T17:04:50.048Z,984.925
2018-09-17T17:06:50.435Z,984.919
2018-09-17T17:08:50.453Z,984.932
2018-09-17T17:10:50.632Z,984.944
2018-09-17T17:12:49.794Z,984.950
2018-09-17T17:14:49.778Z,984.944
2018-09-17T17:16:50.080Z,984.979
2018-09-17T17:18:50.595Z,984.984
2018-09-17T17:20:50.103Z,984.994
2018-09-17T17:22:50.052Z,985.004
2018-09-17T17:24:49.991Z,985.039
2018-09-17T17:26:50.200Z,985.062
2018-09-17T17:28:50.137Z,985.081
2018-09-17T17:30:50.055Z,985.080
2018-09-17T17:32:49.982Z,985.079
2018-09-17T17:34:50.236Z,985.098
2018-09-17T17:36:50.387Z,985.100
2018-09-17T17:38:50.580Z,985.117
2018-09-17T17:40:51.187Z,985.129
2018-09-17T17:42:50.531Z,985.127
2018-09-17T17:44:50.466Z,985.127
2018-09-17T17:46:49.623Z,985.119
2018-09-17T17:48:49.651Z,985.122
2018-09-17T17:50:49.639Z,985.111
2018-09-17T17:52:49.739Z,985.118
2018-09-17T17:54:49.805Z,985.138
2018-09-17T17:56:50.028Z,985.153
2018-09-17T17:58:49.993Z,985.206
2018-09-17T18:00:50.280Z,985.219
2018-09-17T18:02:50.576Z,985.224
2018-09-17T18:04:50.075Z,985.225
2018-09-17T18:06:50.765Z,985.270
2018-09-17T18:08:49.963Z,985.284
2018-09-17T18:10:49.917Z,985.276
2018-09-17T18:12:49.928Z,985.268
2018-09-17T18:14:50.139Z,985.258
2018-09-17T18:16:50.447Z,985.266
2018-09-17T18:18:50.489Z,985.271
2018-09-17T18:20:50.646Z,985.292
2018-09-17T18:22:49.815Z,985.310
2018-09-17T18:24:49.765Z,985.306
2018-09-17T18:26:50.294Z,985.308
2018-09-17T18:28:50.982Z,985.318
2018-09-17T18:30:50.181Z,985.313
2018-09-17T18:32:50.626Z,985.304
2018-09-17T18:34:50.314Z,985.287
2018-09-17T18:36:50.753Z,985.306
2018-09-17T18:38:50.229Z,985.318
2018-09-17T18:40:50.412Z,985.324
2018-09-17T18:42:50.770Z,985.351
2018-09-17T18:44:50.108Z,985.384
2018-09-17T18:46:50.554Z,985.386
2018-09-17T18:48:50.515Z,985.415
2018-09-17T18:50:50.840Z,985.439
2018-09-17T18:52:50.016Z,985.455
2018-09-17T18:54:50.058Z,985.467
2018-09-17T18:56:50.545Z,985.480
2018-09-17T18:58:49.974Z,985.481
2018-09-17T19:00:50.004Z,985.493
2018-09-17T19:02:50.299Z,985.469
2018-09-17T19:04:49.978Z,985.499
2018-09-17T19:06:50.242Z,985.520
2018-09-17T19:08:50.459Z,985.537
2018-09-17T19:10:49.643Z,985.536
2018-09-17T19:12:50.549Z,985.532
2018-09-17T19:14:49.820Z,985.544
2018-09-17T19:16:50.388Z,985.547
2018-09-17T19:18:50.476Z,985.594
2018-09-17T19:20:51.410Z,985.596
2018-09-17T19:22:50.406Z,985.593
2018-09-17T19:24:49.916Z,985.584
2018-09-17T19:26:50.113Z,985.592
2018-09-17T19:28:50.185Z,985.582
2018-09-17T19:30:50.036Z,985.576
2018-09-17T19:32:50.091Z,985.576
2018-09-17T19:34:50.555Z,985.569
2018-09-17T19:36:49.708Z,985.551
2018-09-17T19:38:49.761Z,985.551
2018-09-17T19:40:49.800Z,985.491
2018-09-17T19:42:49.795Z,985.485
2018-09-17T19:44:49.926Z,985.470
2018-09-17T19:46:50.178Z,985.473
2018-09-17T19:48:50.094Z,985.483
2018-09-17T19:50:50.147Z,985.469
2018-09-17T19:52:50.107Z,985.477
2018-09-17T19:54:50.101Z,985.484
2018-09-17T19:56:50.283Z,985.477
2018-09-17T19:58:50.200Z,985.490
2018-09-17T20:00:50.501Z,985.524
2018-09-17T20:02:49.743Z,985.534
2018-09-17T20:04:50.305Z,985.545
2018-09-17T20:06:50.469Z,985.546
2018-09-17T20:08:50.406Z,985.546
2018-09-17T20:10:50.458Z,985.572
2018-09-17T20:12:50.354Z,985.585
2018-09-17T20:14:50.349Z,985.594
2018-09-17T20:16:50.514Z,985.593
2018-09-17T20:18:50.433Z,985.600
2018-09-17T20:20:50.377Z,985.616
2018-09-17T20:22:50.367Z,985.611
2018-09-17T20:24:50.283Z,985.630
2018-09-17T20:26:50.475Z,985.641
2018-09-17T20:28:50.601Z,985.648
2018-09-17T20:30:50.494Z,985.655
2018-09-17T20:32:50.546Z,985.654
2018-09-17T20:34:49.877Z,985.655
2018-09-17T20:36:50.010Z,985.653
2018-09-17T20:38:49.980Z,985.633
2018-09-17T20:40:49.907Z,985.625
2018-09-17T20:42:49.874Z,985.605
2018-09-17T20:44:50.085Z,985.584
2018-09-17T20:46:50.177Z,985.548
2018-09-17T20:48:50.923Z,985.542
2018-09-17T20:50:50.164Z,985.498
2018-09-17T20:52:50.181Z,985.489
2018-09-17T20:54:50.327Z,985.475
2018-09-17T20:56:49.831Z,985.469
2018-09-17T20:58:49.834Z,985.498
2018-09-17T21:00:50.177Z,985.510
2018-09-17T21:02:50.495Z,985.544
2018-09-17T21:04:50.118Z,985.566
2018-09-17T21:06:50.474Z,985.569
2018-09-17T21:08:49.651Z,985.580
2018-09-17T21:10:50.608Z,985.585
2018-09-17T21:12:49.838Z,985.579
2018-09-17T21:14:50.098Z,985.579
2018-09-17T21:16:50.433Z,985.555
2018-09-17T21:18:50.825Z,985.546
2018-09-17T21:20:50.045Z,985.531
2018-09-17T21:22:50.409Z,985.518
2018-09-17T21:24:50.634Z,985.499
2018-09-17T21:26:50.471Z,985.502
2018-09-17T21:28:50.387Z,985.492
2018-09-17T21:30:50.705Z,985.487
2018-09-17T21:32:49.966Z,985.473
2018-09-17T21:34:50.327Z,985.483
2018-09-17T21:36:50.789Z,985.482
2018-09-17T21:38:49.908Z,985.479
2018-09-17T21:40:50.206Z,985.476
2018-09-17T21:42:50.707Z,985.463
2018-09-17T21:44:50.074Z,985.452
2018-09-17T21:46:50.245Z,985.444
2018-09-17T21:48:50.217Z,985.446
2018-09-17T21:50:50.247Z,985.482
2018-09-17T21:52:50.380Z,985.507
2018-09-17T21:54:50.348Z,985.522
2018-09-17T21:56:50.443Z,985.515
2018-09-17T21:58:50.539Z,985.485
2018-09-17T22:00:50.585Z,985.470
2018-09-17T22:02:49.910Z,985.475
2018-09-17T22:04:50.218Z,985.502
2018-09-17T22:06:50.424Z,985.490
2018-09-17T22:08:50.382Z,985.470
2018-09-17T22:10:50.333Z,985.472
2018-09-17T22:12:50.475Z,985.489
2018-09-17T22:14:50.393Z,985.495
2018-09-17T22:16:50.610Z,985.514
2018-09-17T22:18:49.655Z,985.524
2018-09-17T22:20:49.643Z,985.509
2018-09-17T22:22:49.696Z,985.480
2018-09-17T22:24:49.847Z,985.474
2018-09-17T22:26:49.921Z,985.436
2018-09-17T22:28:50.060Z,985.436
2018-09-17T22:30:50.075Z,985.428
2018-09-17T22:32:50.114Z,985.419
2018-09-17T22:34:50.377Z,985.430
2018-09-17T22:36:50.549Z,985.428
2018-09-17T22:38:50.606Z,985.428
2018-09-17T22:40:49.625Z,985.391
2018-09-17T22:42:49.648Z,985.371
2018-09-17T22:44:49.646Z,985.339
2018-09-17T22:46:49.908Z,985.332
2018-09-17T22:48:49.912Z,985.323
2018-09-17T22:50:49.866Z,985.332
2018-09-17T22:52:49.843Z,985.323
2018-09-17T22:54:49.896Z,985.297
2018-09-17T22:56:49.959Z,985.285
2018-09-17T22:58:50.012Z,985.270
2018-09-17T23:00:49.950Z,985.270
2018-09-17T23:02:49.933Z,985.232
2018-09-17T23:04:50.266Z,985.222
2018-09-17T23:06:50.384Z,985.200
2018-09-17T23:08:50.352Z,985.188
2018-09-17T23:10:50.289Z,985.194
2018-09-17T23:12:50.344Z,985.159
2018-09-17T23:14:50.367Z,985.141
2018-09-17T23:16:50.596Z,985.141
2018-09-17T23:18:50.628Z,985.140
2018-09-17T23:20:49.614Z,985.140
2018-09-17T23:22:49.645Z,985.090
2018-09-17T23:24:49.635Z,985.074
2018-09-17T23:26:49.896Z,985.072
2018-09-17T23:28:49.934Z,985.082
2018-09-17T23:30:49.944Z,985.088
2018-09-17T23:32:50.040Z,985.072
2018-09-17T23:34:50.350Z,985.069
2018-09-17T23:36:49.620Z,985.049
2018-09-17T23:38:49.645Z,985.041
2018-09-17T23:40:49.638Z,985.021
2018-09-17T23:42:50.036Z,985.024
2018-09-17T23:44:50.162Z,985.014
2018-09-17T23:46:50.413Z,985.002
2018-09-17T23:48:50.468Z,985.002
2018-09-17T23:50:50.399Z,984.976
2018-09-17T23:52:50.423Z,984.971
2018-09-17T23:54:50.315Z,984.971
2018-09-17T23:56:50.462Z,984.965
2018-09-17T23:58:49.630Z,984.960
